Latest Weather Observations for Munglinup West

IDW60801

Issued at 4:33 pm WST Saturday 1 October 2016 (issued every 30 minutes, with the page automatically refreshed every 10 minutes)

About weather observations | Map of weather stations | Latest weather observations for WA | Other Formats
Station Details ID: 012044 Name: MUNGLINUP WEST Lat: -33.55 Lon: 120.70 Height: 220.0 m
Data from the previous 72 hours. | See also: Recent months at Munglinup West
Date/Time
WST
Temp
°C
App
Temp
°C
Dew
Point
°C
Rel
Hum
%
Delta-T
°C
Wind Press
QNH
hPa
Press
MSL
hPa
Rain since
9am
mm
Dir  Spd
km/h
Gust
km/h
Spd
kts
Gust
kts
01/04:30pm 10.3 1.7 0.1 49 4.2 WNW 35 56 19 30 998.6 998.1 2.4
01/04:00pm 12.4 3.2 1.4 47 4.8 W 39 59 21 32 998.0 997.5 2.4
01/03:30pm 12.4 2.2 5.3 62 3.3 W 48 69 26 37 997.6 997.1 2.4
01/03:00pm 11.0 1.3 3.1 58 3.5 W 43 65 23 35 997.3 996.8 2.4
01/02:30pm 14.2 4.3 4.8 53 4.4 W 46 70 25 38 996.5 996.0 2.2
01/02:00pm 15.1 4.2 3.3 45 5.5 W 50 78 27 42 996.4 995.9 2.2
01/01:30pm 14.9 5.8 8.4 65 3.3 W 46 70 25 38 996.2 995.7 2.2
01/01:00pm 11.4 1.2 5.1 65 2.9 W 48 72 26 39 996.5 996.0 2.2
01/12:30pm 15.3 6.0 6.1 54 4.5 WNW 44 69 24 37 995.5 995.1 2.2
01/12:00pm 14.3 6.0 5.9 57 4.1 WNW 39 61 21 33 995.6 995.2 2.2
01/11:32am 13.1 2.7 6.2 63 3.3 W 50 95 27 51 996.0 995.5 2.2
01/11:30am 13.1 2.3 6.0 62 3.4 W 52 74 28 40 996.0 995.5 2.2
01/11:24am 13.0 1.9 6.4 64 3.2 W 54 74 29 40 996.0 995.5 2.2
01/11:20am 13.1 2.5 6.7 65 3.1 W 52 74 28 40 995.7 995.3 2.2
01/11:00am 12.1 4.7 6.6 69 2.7 W 35 63 19 34 995.7 995.3 2.2
01/10:30am 9.9 3.7 6.3 78 1.7 WNW 28 46 15 25 996.0 995.5 2.2
01/10:26am 9.5 3.3 6.0 79 1.6 WNW 28 46 15 25 996.0 995.5 2.2
01/10:15am 8.8 0.3 5.2 78 1.6 W 39 63 21 34 996.2 995.7 2.0
01/10:00am 8.8 -2.6 4.8 76 1.8 WNW 54 83 29 45 996.0 995.5 1.6
01/09:56am 10.0 0.6 5.4 73 2.1 NW 44 83 24 45 996.1 995.6 1.0
01/09:30am 16.0 7.3 10.1 68 3.1 NW 46 70 25 38 995.1 994.6 0.0
01/09:29am 15.8 7.1 10.1 69 3.0 NW 46 70 25 38 995.0 994.5 0.0
01/09:27am 15.1 5.9 9.5 69 2.9 NW 48 70 26 38 995.0 994.5 0.0
01/09:00am 14.9 8.1 9.1 68 3.0 NW 35 61 19 33 995.5 995.1 0.0
01/08:30am 15.0 8.4 10.0 72 2.6 NW 35 56 19 30 996.2 995.7 0.0
01/08:00am 14.8 8.4 10.8 77 2.2 NW 35 57 19 31 996.4 995.9 0.0
01/07:51am 14.3 8.4 10.3 77 2.1 NW 32 52 17 28 996.4 996.1 0.0
01/07:30am 12.9 6.8 9.7 81 1.7 NNW 32 48 17 26 996.8 996.5 0.0
01/07:00am 11.4 5.3 8.3 81 1.6 NNW 30 43 16 23 997.3 997.1 0.0
01/06:30am 11.4 5.6 8.1 80 1.6 NNW 28 41 15 22 997.5 997.3 0.0
01/06:00am 11.0 6.1 8.4 84 1.3 NW 24 37 13 20 998.1 997.9 0.0
01/05:30am 10.7 6.5 8.1 84 1.3 NW 20 33 11 18 998.5 998.3 0.0
01/05:00am 10.4 6.2 7.5 82 1.4 NW 19 32 10 17 998.8 998.6 0.0
01/04:30am 9.8 5.6 7.4 85 1.2 NW 19 30 10 16 999.4 999.2 0.0
01/04:00am 8.9 5.8 7.2 89 0.8 NW 13 19 7 10 999.6 999.4 0.0
01/03:30am 8.8 5.2 6.6 86 1.0 NW 15 22 8 12 999.9 999.7 0.0
01/03:00am 9.1 5.4 6.4 83 1.3 NNW 15 26 8 14 1000.2 1000.0 0.0
01/02:30am 9.5 5.9 6.8 83 1.3 NW 15 20 8 11 1000.8 1000.5 0.0
01/02:00am 9.8 6.5 6.2 78 1.7 NW 13 19 7 10 1001.0 1000.7 0.0
01/01:30am 10.5 6.7 5.9 73 2.2 NW 15 20 8 11 1001.3 1001.1 0.0
01/01:00am 11.3 7.4 5.2 66 2.8 WNW 15 22 8 12 1001.7 1001.5 0.0
01/12:30am 11.9 8.1 5.8 66 2.9 NW 15 20 8 11 1001.8 1001.6 0.0
01/12:00am 12.1 8.8 8.0 76 2.0 NW 15 20 8 11 1001.9 1001.7 0.0
 
Date/Time
WST
Temp
°C
App
Temp
°C
Dew
Point
°C
Rel
Hum
%
Delta-T
°C
Wind Press
QNH
hPa
Press
MSL
hPa
Rain since
9am
mm
Dir  Spd
km/h
Gust
km/h
Spd
kts
Gust
kts
30/11:30pm 12.9 9.3 8.4 74 2.3 WNW 17 26 9 14 1002.4 1002.2 0.0
30/11:00pm 13.0 9.9 10.2 83 1.5 NW 17 24 9 13 1002.8 1002.6 0.0
30/10:30pm 13.2 9.4 9.1 76 2.1 WNW 19 28 10 15 1003.0 1002.8 0.0
30/10:00pm 13.8 9.9 7.1 64 3.3 NW 17 24 9 13 1003.4 1003.2 0.0
30/09:30pm 13.8 10.8 7.8 67 3.0 WNW 13 19 7 10 1003.5 1003.3 0.0
30/09:00pm 14.4 10.5 7.0 61 3.7 WNW 17 28 9 15 1003.5 1003.3 0.0
30/08:30pm 14.3 10.1 7.6 64 3.3 NW 19 26 10 14 1003.5 1003.3 0.0
30/08:00pm 14.3 10.3 9.1 71 2.7 WNW 20 30 11 16 1003.4 1003.2 0.0
30/07:30pm 14.4 10.1 7.9 65 3.3 NW 20 28 11 15 1003.1 1002.9 0.0
30/07:00pm 14.7 9.4 5.0 52 4.6 NW 22 33 12 18 1002.8 1002.6 0.0
30/06:30pm 16.6 10.8 4.6 45 5.7 WNW 24 39 13 21 1002.5 1002.3 0.0
30/06:00pm 16.9 12.1 5.5 47 5.6 WNW 20 30 11 16 1002.3 1002.1 0.0
30/05:30pm 17.4 11.8 3.7 40 6.5 WNW 22 35 12 19 1002.2 1002.0 0.0
30/05:00pm 17.7 12.3 4.6 42 6.3 WNW 22 33 12 18 1001.9 1001.7 0.0
30/04:51pm 17.6 10.7 2.4 36 7.0 W 28 46 15 25 1001.9 1001.7 0.0
30/04:30pm 18.1 11.8 1.6 33 7.5 W 24 37 13 20 1001.8 1001.6 0.0
30/04:00pm 18.5 11.4 1.1 31 7.9 WNW 28 41 15 22 1001.5 1001.3 0.0
30/03:30pm 18.9 12.8 5.0 40 6.8 W 26 39 14 21 1001.5 1001.3 0.0
30/03:00pm 19.9 13.3 4.4 36 7.6 WNW 28 41 15 22 1001.3 1001.1 0.0
30/02:30pm 20.1 14.0 4.6 36 7.6 WNW 26 41 14 22 1001.6 1001.4 0.0
30/02:00pm 20.8 14.4 5.2 36 7.8 WNW 28 41 15 22 1001.6 1001.4 0.0
30/01:47pm 20.2 13.6 4.3 35 7.7 WNW 28 46 15 25 1001.7 1001.5 0.0
30/01:30pm 20.7 14.3 5.1 36 7.7 WNW 28 43 15 23 1001.8 1001.6 0.0
30/01:06pm 20.6 14.2 5.0 36 7.7 NW 28 46 15 25 1002.1 1001.9 0.0
30/01:00pm 20.1 13.3 5.0 37 7.5 NW 30 43 16 23 1002.2 1002.0 0.0
30/12:30pm 19.8 13.3 4.7 37 7.4 WNW 28 43 15 23 1002.7 1002.5 0.0
30/12:00pm 19.2 12.3 4.6 38 7.1 NW 30 52 16 28 1003.2 1003.0 0.0
30/11:48am 19.1 12.5 4.1 37 7.2 WNW 28 48 15 26 1003.4 1003.2 0.0
30/11:30am 18.9 13.0 3.9 37 7.2 NW 24 35 13 19 1003.8 1003.6 0.0
30/11:00am 18.1 11.7 3.2 37 7.0 NW 26 37 14 20 1004.1 1003.9 0.0
30/10:30am 15.9 10.3 1.2 37 6.5 NW 20 32 11 17 1004.9 1004.8 0.0
30/10:00am 16.0 11.3 3.1 42 6.0 NW 17 26 9 14 1005.5 1005.3 0.0
30/09:30am 14.3 9.8 4.0 50 4.8 NW 17 24 9 13 1005.6 1005.4 0.0
30/09:00am 12.9 7.5 2.5 49 4.6 NW 20 28 11 15 1006.1 1005.9 0.2
30/08:30am 11.2 5.6 1.2 50 4.2 NNW 20 28 11 15 1006.2 1006.0 0.2
30/08:00am 10.9 5.5 2.5 56 3.7 NNW 20 30 11 16 1006.8 1006.6 0.2
30/07:30am 9.3 5.4 3.3 66 2.6 NW 13 17 7 9 1007.3 1007.1 0.2
30/07:00am 7.4 2.7 0.8 63 2.7 N 15 20 8 11 1006.9 1006.7 0.2
30/06:30am 5.8 0.2 -0.3 65 2.4 NNE 19 28 10 15 1006.6 1006.4 0.2
30/06:00am 4.8 -0.1 -0.2 70 1.9 NNE 15 20 8 11 1006.7 1006.5 0.2
30/05:30am 3.7 -0.5 -0.7 73 1.6 N 11 13 6 7 1007.3 1007.1 0.2
30/05:00am 4.6 0.5 -0.4 70 1.9 N 11 13 6 7 1007.4 1007.2 0.2
30/04:30am 5.2 0.8 0.4 71 1.9 NNE 13 19 7 10 1007.5 1007.3 0.2
30/04:00am 5.0 -0.2 0.4 72 1.8 NNE 17 22 9 12 1007.8 1007.6 0.2
30/03:30am 5.1 -0.4 0.3 71 1.9 NE 19 24 10 13 1007.9 1007.7 0.2
30/03:00am 5.3 -0.3 1.2 75 1.6 NE 20 28 11 15 1008.2 1008.0 0.2
30/02:30am 5.4 0.0 1.5 76 1.6 NE 19 24 10 13 1008.9 1008.8 0.2
30/02:00am 5.5 0.2 1.8 77 1.5 NE 19 24 10 13 1009.4 1009.3 0.2
30/01:30am 5.9 0.6 2.0 76 1.6 NE 19 24 10 13 1010.0 1009.9 0.2
30/01:00am 6.0 0.6 2.3 77 1.5 NE 20 26 11 14 1010.7 1010.5 0.2
30/12:30am 6.1 0.3 2.2 76 1.6 NE 22 30 12 16 1010.9 1010.7 0.2
30/12:00am 6.3 0.9 2.2 75 1.7 NE 20 26 11 14 1011.8 1011.6 0.2
 
Date/Time
WST
Temp
°C
App
Temp
°C
Dew
Point
°C
Rel
Hum
%
Delta-T
°C
Wind Press
QNH
hPa
Press
MSL
hPa
Rain since
9am
mm
Dir  Spd
km/h
Gust
km/h
Spd
kts
Gust
kts
29/11:30pm 6.5 1.3 2.6 76 1.6 ENE 19 24 10 13 1012.5 1012.3 0.2
29/11:00pm 6.9 1.6 3.0 76 1.7 ENE 20 28 11 15 1012.7 1012.6 0.2
29/10:30pm 7.1 2.4 3.3 77 1.6 ENE 17 24 9 13 1013.1 1013.0 0.2
29/10:00pm 7.2 2.0 2.7 73 1.9 ENE 19 24 10 13 1013.3 1013.2 0.2
29/09:30pm 7.7 2.3 2.6 70 2.2 ENE 20 26 11 14 1013.5 1013.4 0.2
29/09:00pm 8.1 2.8 2.8 69 2.3 E 20 26 11 14 1014.1 1014.0 0.2
29/08:30pm 8.3 3.3 3.6 72 2.0 E 19 24 10 13 1014.2 1014.1 0.2
29/08:00pm 8.4 3.8 3.7 72 2.1 E 17 20 9 11 1014.5 1014.4 0.2
29/07:30pm 8.4 3.5 2.2 65 2.6 E 17 19 9 10 1014.6 1014.5 0.2
29/07:00pm 9.0 4.6 2.8 65 2.7 E 15 20 8 11 1014.4 1014.3 0.2
29/06:30pm 9.8 5.1 3.1 63 2.9 E 17 24 9 13 1014.1 1014.0 0.2
29/06:00pm 10.8 6.8 4.9 67 2.7 ESE 15 20 8 11 1014.7 1014.6 0.2
29/05:30pm 12.7 8.5 5.6 62 3.4 E 17 22 9 12 1015.1 1014.9 0.2
29/05:00pm 15.6 12.5 7.1 57 4.2 E 13 22 7 12 1015.5 1015.3 0.2
29/04:30pm 16.8 14.5 7.4 54 4.8 E 9 17 5 9 1015.9 1015.7 0.2
29/04:00pm 17.1 15.2 7.5 53 4.9 E 7 13 4 7 1016.2 1016.0 0.2
29/03:30pm 16.8 15.1 7.4 54 4.8 NNE 6 15 3 8 1016.6 1016.5 0.2
29/03:00pm 16.9 14.9 7.3 53 4.8 NE 7 19 4 10 1017.1 1017.0 0.2
29/02:30pm 16.9 15.2 7.5 54 4.8 NNE 6 19 3 10 1017.5 1017.4 0.2
29/02:00pm 16.4 14.6 7.9 57 4.3 NE 7 15 4 8 1018.1 1018.0 0.2
29/01:30pm 15.6 13.7 6.9 56 4.3 NE 6 13 3 7 1018.7 1018.6 0.2
29/01:00pm 15.3 13.1 6.3 55 4.4 N 7 13 4 7 1019.2 1019.1 0.2
29/12:30pm 15.1 13.0 5.6 53 4.6 SE 6 9 3 5 1020.0 1019.8 0.2
29/12:00pm 15.3 13.1 5.2 51 4.8 ESE 6 9 3 5 1020.8 1020.7 0.2
29/11:30am 15.1 12.8 5.0 51 4.8 ENE 6 13 3 7 1021.0 1020.9 0.2
29/11:00am 14.1 11.8 5.7 57 4.0 NNE 7 13 4 7 1021.2 1021.1 0.0
29/10:30am 13.6 11.5 6.5 62 3.4 E 7 17 4 9 1021.3 1021.2 0.0
29/10:00am 11.6 9.5 4.1 60 3.4 NW 4 7 2 4 1021.7 1021.6 0.0
29/09:30am 12.1 9.3 5.3 63 3.2 E 9 15 5 8 1021.9 1021.8 0.0
29/09:00am 11.7 9.2 4.7 62 3.2 S 7 13 4 7 1022.0 1021.9 0.8
29/08:30am 10.3 7.1 2.9 60 3.2 S 9 13 5 7 1022.1 1022.0 0.8
29/08:00am 9.5 7.7 3.3 65 2.7 SW 2 4 1 2 1022.1 1022.0 0.8
29/07:30am 8.7 6.9 3.7 71 2.2 W 2 6 1 3 1022.0 1021.9 0.8
29/07:00am 7.7 5.5 3.6 75 1.8 WNW 4 6 2 3 1021.8 1021.7 0.8
29/06:30am 7.1 5.5 2.4 72 2.0 CALM 0 0 0 0 1021.3 1021.2 0.8
29/06:00am 6.8 5.1 1.9 71 2.0 CALM 0 0 0 0 1021.2 1021.1 0.8
29/05:30am 6.7 4.6 2.0 72 1.9 NW 2 4 1 2 1021.3 1021.2 0.8
29/05:00am 6.8 4.4 1.9 71 2.0 WSW 4 4 2 2 1021.5 1021.4 0.8
29/04:30am 6.6 3.8 2.3 74 1.8 WSW 6 9 3 5 1021.3 1021.2 0.8
29/04:00am 6.6 3.7 1.3 69 2.1 WSW 6 7 3 4 1021.0 1020.9 0.8
29/03:30am 6.8 3.7 1.1 67 2.3 SW 7 9 4 5 1021.1 1021.0 0.8
29/03:00am 6.8 4.0 1.9 71 2.0 SSW 6 9 3 5 1021.4 1021.3 0.8
29/02:30am 6.7 4.0 2.4 74 1.8 SW 6 7 3 4 1021.4 1021.3 0.8
29/02:00am 6.6 4.2 2.3 74 1.8 SW 4 6 2 3 1021.5 1021.4 0.8
29/01:30am 6.5 3.7 2.0 73 1.9 WSW 6 7 3 4 1021.5 1021.4 0.8
29/01:00am 6.6 3.7 1.5 70 2.1 W 6 7 3 4 1021.8 1021.7 0.8
29/12:30am 6.8 3.5 6.2 96 0.3 SW 13 19 7 10 1021.8 1021.7 0.8
29/12:00am 6.6 2.9 6.2 97 0.2 S 15 22 8 12 1022.1 1022.0 0.8
 
Date/Time
WST
Temp
°C
App
Temp
°C
Dew
Point
°C
Rel
Hum
%
Delta-T
°C
Wind Press
QNH
hPa
Press
MSL
hPa
Rain since
9am
mm
Dir  Spd
km/h
Gust
km/h
Spd
kts
Gust
kts
28/11:30pm 5.9 3.6 5.5 97 0.2 W 7 9 4 5 1022.2 1022.1 0.8
28/11:00pm 5.9 3.7 5.5 97 0.2 W 6 9 3 5 1022.4 1022.3 0.8
28/10:30pm 5.8 3.6 5.4 97 0.2 W 6 6 3 3 1022.4 1022.3 0.8
28/10:00pm 5.3 3.0 5.0 98 0.1 SSW 6 7 3 4 1022.5 1022.4 0.8
28/09:30pm 5.1 1.9 0.9 74 1.7 SSW 7 11 4 6 1022.6 1022.5 0.8
28/09:00pm 5.0 1.9 0.2 71 1.9 W 6 7 3 4 1022.5 1022.4 0.8
28/08:30pm 6.0 2.4 0.3 67 2.2 SSW 9 15 5 8 1022.6 1022.5 0.8
28/08:00pm 5.8 1.8 0.8 70 2.0 SW 11 15 6 8 1022.4 1022.3 0.8
28/07:30pm 6.5 1.5 1.6 71 2.0 SSW 17 22 9 12 1022.6 1022.5 0.8
28/07:00pm 5.8 2.1 -0.3 65 2.3 SW 9 13 5 7 1022.2 1022.1 0.6
28/06:30pm 6.9 0.8 0.6 64 2.5 SW 22 32 12 17 1022.2 1022.1 0.6
28/06:00pm 7.2 1.1 0.6 63 2.6 SW 22 32 12 17 1021.8 1021.7 0.6
28/05:30pm 7.2 0.0 0.6 63 2.6 SSW 28 43 15 23 1021.4 1021.3 0.4
28/05:00pm 8.9 2.1 1.1 58 3.2 SW 26 39 14 21 1020.9 1020.8 0.4

Other Formats:

Comma delimited format used in spreadsheet applications
http://www.bom.gov.au/fwo/IDW60801/IDW60801.95644.axf

JavaScript Object Notation format (JSON) in row-major order
http://www.bom.gov.au/fwo/IDW60801/IDW60801.95644.json